createdAt,value
2019-03-08T00:01:01.566Z,18.18
2019-03-08T00:02:11.302Z,18.23
2019-03-08T00:03:21.312Z,18.14
2019-03-08T00:04:31.292Z,18.17
2019-03-08T00:05:41.009Z,18.17
2019-03-08T00:06:50.729Z,18.21
2019-03-08T00:08:00.456Z,18.15
2019-03-08T00:09:11.552Z,18.17
2019-03-08T00:10:21.021Z,18.15
2019-03-08T00:11:31.008Z,18.17
2019-03-08T00:12:40.488Z,18.26
2019-03-08T00:13:50.477Z,18.25
2019-03-08T00:15:00.343Z,18.26
2019-03-08T00:16:09.859Z,18.25
2019-03-08T00:17:19.342Z,18.23
2019-03-08T00:18:29.078Z,18.23
2019-03-08T00:19:39.066Z,18.23
2019-03-08T00:20:48.799Z,18.15
2019-03-08T00:21:58.774Z,18.17
2019-03-08T00:23:08.506Z,18.2
2019-03-08T00:24:17.993Z,18.18
2019-03-08T00:25:27.491Z,18.17
2019-03-08T00:26:37.465Z,18.17
2019-03-08T00:27:46.707Z,18.18
2019-03-08T00:28:57.654Z,18.14
2019-03-08T00:30:07.375Z,18.21
2019-03-08T00:31:16.850Z,18.17
2019-03-08T00:32:26.860Z,18.15
2019-03-08T00:33:37.077Z,18.18
2019-03-08T00:34:47.276Z,18.14
2019-03-08T00:35:57.919Z,18.12
2019-03-08T00:37:09.120Z,18.17
2019-03-08T00:38:19.637Z,18.03
2019-03-08T00:39:29.596Z,18.11
2019-03-08T00:40:39.579Z,18.1
2019-03-08T00:41:48.988Z,18.03
2019-03-08T00:42:58.851Z,18.08
2019-03-08T00:44:08.833Z,18.07
2019-03-08T00:45:18.565Z,18.08
2019-03-08T00:46:28.073Z,18.08
2019-03-08T00:47:37.309Z,18.08
2019-03-08T00:48:48.900Z,18.11
2019-03-08T00:49:58.922Z,18.08
2019-03-08T00:51:08.908Z,18.07
2019-03-08T00:52:18.644Z,18.11
2019-03-08T00:53:28.623Z,18.12
2019-03-08T00:54:38.107Z,18
2019-03-08T00:55:47.597Z,17.97
2019-03-08T00:56:57.331Z,18.02
2019-03-08T00:58:06.814Z,17.97
2019-03-08T00:59:16.790Z,18
2019-03-08T01:00:26.274Z,18.03
2019-03-08T01:01:36.253Z,18.03
2019-03-08T01:02:45.979Z,18.07
2019-03-08T01:03:55.702Z,17.95
2019-03-08T01:05:05.690Z,17.99
2019-03-08T01:06:15.420Z,18
2019-03-08T01:07:24.670Z,17.95
2019-03-08T01:08:34.641Z,17.96
2019-03-08T01:09:44.613Z,18
2019-03-08T01:10:54.336Z,18
2019-03-08T01:12:03.820Z,17.96
2019-03-08T01:13:13.816Z,17.99
2019-03-08T01:14:23.540Z,17.92
2019-03-08T01:15:33.549Z,17.92
2019-03-08T01:16:43.291Z,17.9
2019-03-08T01:17:53.292Z,17.96
2019-03-08T01:19:03.030Z,17.93
2019-03-08T01:20:12.801Z,17.92
2019-03-08T01:21:22.534Z,17.9
2019-03-08T01:22:32.259Z,17.93
2019-03-08T01:23:42.022Z,17.89
2019-03-08T01:24:51.751Z,17.95
2019-03-08T01:26:00.735Z,17.93
2019-03-08T01:27:10.757Z,17.92
2019-03-08T01:28:20.764Z,17.86
2019-03-08T01:29:30.269Z,17.87
2019-03-08T01:30:39.775Z,17.84
2019-03-08T01:31:49.262Z,17.89
2019-03-08T01:33:01.422Z,17.9
2019-03-08T01:34:11.599Z,17.92
2019-03-08T01:35:22.273Z,17.93
2019-03-08T01:36:32.811Z,17.9
2019-03-08T01:37:43.379Z,17.84
2019-03-08T01:38:53.688Z,17.86
2019-03-08T01:40:03.325Z,17.86
2019-03-08T01:41:13.228Z,17.89
2019-03-08T01:42:23.215Z,17.92
2019-03-08T01:43:32.930Z,17.86
2019-03-08T01:44:42.157Z,17.82
2019-03-08T01:45:52.183Z,17.86
2019-03-08T01:47:02.155Z,17.87
2019-03-08T01:48:11.640Z,17.89
2019-03-08T01:49:21.377Z,17.89
2019-03-08T01:50:30.631Z,17.87
2019-03-08T01:51:40.096Z,17.81
2019-03-08T01:52:50.091Z,17.89
2019-03-08T01:53:59.821Z,17.78
2019-03-08T01:55:09.554Z,17.78
2019-03-08T01:56:19.295Z,17.77
2019-03-08T01:57:29.303Z,17.77
2019-03-08T01:58:39.031Z,17.75
2019-03-08T01:59:48.515Z,17.77
2019-03-08T02:00:57.998Z,17.77
2019-03-08T02:02:07.727Z,17.78
2019-03-08T02:03:19.692Z,17.72
2019-03-08T02:04:29.436Z,17.78
2019-03-08T02:05:39.423Z,17.77
2019-03-08T02:06:49.165Z,17.72
2019-03-08T02:07:59.127Z,17.74
2019-03-08T02:09:09.097Z,17.75
2019-03-08T02:10:18.833Z,17.74
2019-03-08T02:11:28.552Z,17.77
2019-03-08T02:12:38.551Z,17.75
2019-03-08T02:13:49.827Z,17.82
2019-03-08T02:14:59.305Z,17.75
2019-03-08T02:16:09.292Z,17.81
2019-03-08T02:17:19.071Z,17.72
2019-03-08T02:18:28.805Z,17.78
2019-03-08T02:19:38.785Z,17.64
2019-03-08T02:20:48.277Z,17.74
2019-03-08T02:21:59.720Z,17.7
2019-03-08T02:23:09.706Z,17.74
2019-03-08T02:24:19.452Z,17.66
2019-03-08T02:25:29.177Z,17.71
2019-03-08T02:26:38.672Z,17.75
2019-03-08T02:27:47.932Z,17.71
2019-03-08T02:28:57.671Z,17.72
2019-03-08T02:30:07.808Z,17.77
2019-03-08T02:31:17.874Z,17.64
2019-03-08T02:32:27.982Z,17.66
2019-03-08T02:33:37.742Z,17.78
2019-03-08T02:34:47.632Z,17.66
2019-03-08T02:35:58.414Z,17.64
2019-03-08T02:37:08.715Z,17.78
2019-03-08T02:38:18.972Z,17.74
2019-03-08T02:39:29.108Z,17.75
2019-03-08T02:40:38.943Z,17.75
2019-03-08T02:41:48.439Z,17.71
2019-03-08T02:42:58.167Z,17.78
2019-03-08T02:44:07.914Z,17.75
2019-03-08T02:45:17.382Z,17.72
2019-03-08T02:46:27.358Z,17.77
2019-03-08T02:47:37.334Z,17.77
2019-03-08T02:48:47.072Z,17.75
2019-03-08T02:49:56.806Z,17.75
2019-03-08T02:51:06.539Z,17.64
2019-03-08T02:52:15.770Z,17.62
2019-03-08T02:53:25.746Z,17.66
2019-03-08T02:54:36.930Z,17.66
2019-03-08T02:55:46.660Z,17.63
2019-03-08T02:56:56.156Z,17.68
2019-03-08T02:58:05.896Z,17.7
2019-03-08T02:59:15.625Z,17.66
2019-03-08T03:00:25.413Z,17.66
2019-03-08T03:01:35.394Z,17.63
2019-03-08T03:02:45.392Z,17.62
2019-03-08T03:03:55.365Z,17.68
2019-03-08T03:05:04.938Z,17.72
2019-03-08T03:06:14.938Z,17.66
2019-03-08T03:07:24.165Z,17.66
2019-03-08T03:08:34.137Z,17.68
2019-03-08T03:09:43.871Z,17.63
2019-03-08T03:10:53.347Z,17.66
2019-03-08T03:12:03.079Z,17.7
2019-03-08T03:13:13.062Z,17.7
2019-03-08T03:14:23.032Z,17.63
2019-03-08T03:15:32.526Z,17.7
2019-03-08T03:16:42.001Z,17.66
2019-03-08T03:17:51.717Z,17.7
2019-03-08T03:19:01.702Z,17.56
2019-03-08T03:20:11.446Z,17.64
2019-03-08T03:21:21.196Z,17.63
2019-03-08T03:22:30.660Z,17.66
2019-03-08T03:23:40.132Z,17.7
2019-03-08T03:24:49.861Z,17.64
2019-03-08T03:25:59.589Z,17.68
2019-03-08T03:27:09.556Z,17.7
2019-03-08T03:28:19.321Z,17.68
2019-03-08T03:29:29.286Z,17.7
2019-03-08T03:30:39.359Z,17.59
2019-03-08T03:31:49.043Z,17.62
2019-03-08T03:32:59.675Z,17.7
2019-03-08T03:34:09.978Z,17.66
2019-03-08T03:35:20.392Z,17.68
2019-03-08T03:36:30.784Z,17.68
2019-03-08T03:37:41.176Z,17.68
2019-03-08T03:38:50.818Z,17.71
2019-03-08T03:40:00.348Z,17.68
2019-03-08T03:41:10.344Z,17.59
2019-03-08T03:42:20.322Z,17.59
2019-03-08T03:43:30.036Z,17.63
2019-03-08T03:44:39.514Z,17.66
2019-03-08T03:45:49.511Z,17.66
2019-03-08T03:46:59.522Z,17.64
2019-03-08T03:48:09.263Z,17.54
2019-03-08T03:49:18.487Z,17.59
2019-03-08T03:50:27.971Z,17.58
2019-03-08T03:51:37.431Z,17.64
2019-03-08T03:52:47.438Z,17.58
2019-03-08T03:53:57.441Z,17.55
2019-03-08T03:55:07.467Z,17.49
2019-03-08T03:56:17.187Z,17.63
2019-03-08T03:57:26.917Z,17.52
2019-03-08T03:58:36.643Z,17.55
2019-03-08T03:59:46.125Z,17.63
2019-03-08T04:00:55.608Z,17.56
2019-03-08T04:02:05.627Z,17.58
2019-03-08T04:03:15.351Z,17.55
2019-03-08T04:04:25.082Z,17.54
2019-03-08T04:05:35.078Z,17.51
2019-03-08T04:06:45.051Z,17.56
2019-03-08T04:07:54.808Z,17.62
2019-03-08T04:09:04.540Z,17.54
2019-03-08T04:10:13.755Z,17.54
2019-03-08T04:11:23.793Z,17.62
2019-03-08T04:12:33.543Z,17.52
2019-03-08T04:13:43.529Z,17.63
2019-03-08T04:14:53.248Z,17.59
2019-03-08T04:16:02.732Z,17.56
2019-03-08T04:17:12.703Z,17.52
2019-03-08T04:18:22.187Z,17.49
2019-03-08T04:19:31.681Z,17.54
2019-03-08T04:20:40.946Z,17.56
2019-03-08T04:21:50.933Z,17.59
2019-03-08T04:23:00.668Z,17.56
2019-03-08T04:24:10.153Z,17.59
2019-03-08T04:25:19.640Z,17.56
2019-03-08T04:26:29.147Z,17.58
2019-03-08T04:27:38.623Z,17.62
2019-03-08T04:28:49.487Z,17.54
2019-03-08T04:30:01.432Z,17.55
2019-03-08T04:31:10.913Z,17.58
2019-03-08T04:32:20.681Z,17.55
2019-03-08T04:33:30.978Z,17.55
2019-03-08T04:34:41.165Z,17.54
2019-03-08T04:35:51.023Z,17.58
2019-03-08T04:37:01.381Z,17.59
2019-03-08T04:38:11.763Z,17.58
2019-03-08T04:39:21.804Z,17.59
2019-03-08T04:40:31.918Z,17.55
2019-03-08T04:41:42.149Z,17.63
2019-03-08T04:42:51.596Z,17.59
2019-03-08T04:44:01.141Z,17.56
2019-03-08T04:45:10.885Z,17.58
2019-03-08T04:46:20.621Z,17.55
2019-03-08T04:47:30.599Z,17.54
2019-03-08T04:48:40.328Z,17.58
2019-03-08T04:49:49.311Z,17.58
2019-03-08T04:50:58.796Z,17.51
2019-03-08T04:52:08.520Z,17.58
2019-03-08T04:53:18.505Z,17.55
2019-03-08T04:54:28.483Z,17.55
2019-03-08T04:55:37.957Z,17.56
2019-03-08T04:56:47.459Z,17.44
2019-03-08T04:57:56.949Z,17.51
2019-03-08T04:59:06.701Z,17.54
2019-03-08T05:00:16.441Z,17.49
2019-03-08T05:01:25.919Z,17.46
2019-03-08T05:02:35.658Z,17.49
2019-03-08T05:03:45.643Z,17.51
2019-03-08T05:04:55.114Z,17.48
2019-03-08T05:06:05.709Z,17.43
2019-03-08T05:07:15.441Z,17.44
2019-03-08T05:08:24.682Z,17.43
2019-03-08T05:09:34.170Z,17.48
2019-03-08T05:10:44.184Z,17.44
2019-03-08T05:11:54.191Z,17.49
2019-03-08T05:13:04.155Z,17.46
2019-03-08T05:14:13.634Z,17.41
2019-03-08T05:15:23.608Z,17.46
2019-03-08T05:16:33.601Z,17.49
2019-03-08T05:17:43.624Z,17.43
2019-03-08T05:18:53.368Z,17.43
2019-03-08T05:20:02.838Z,17.41
2019-03-08T05:21:12.322Z,17.49
2019-03-08T05:22:23.210Z,17.43
2019-03-08T05:23:33.011Z,17.46
2019-03-08T05:25:54.735Z,17.44
2019-03-08T05:27:04.566Z,17.41
2019-03-08T05:28:14.541Z,17.44
2019-03-08T05:29:26.724Z,17.46
2019-03-08T05:30:36.464Z,17.51
2019-03-08T05:31:46.458Z,17.49
2019-03-08T05:32:55.925Z,17.59
2019-03-08T05:34:05.679Z,17.56
2019-03-08T05:35:15.711Z,17.59
2019-03-08T05:36:25.729Z,17.7
2019-03-08T05:37:35.941Z,17.63
2019-03-08T05:38:46.359Z,17.56
2019-03-08T05:39:57.709Z,17.49
2019-03-08T05:41:08.145Z,17.63
2019-03-08T05:42:18.553Z,17.49
2019-03-08T05:43:28.629Z,17.44
2019-03-08T05:44:38.008Z,17.41
2019-03-08T05:45:47.474Z,17.43
2019-03-08T05:46:57.478Z,17.41
2019-03-08T05:48:06.979Z,17.43
2019-03-08T05:49:16.713Z,17.54
2019-03-08T05:50:26.429Z,17.58
2019-03-08T05:51:35.664Z,17.56
2019-03-08T05:52:45.708Z,17.7
2019-03-08T05:53:55.453Z,17.72
2019-03-08T05:55:05.422Z,17.66
2019-03-08T05:56:15.188Z,17.62
2019-03-08T05:57:24.686Z,17.64
2019-03-08T05:58:34.447Z,17.62
2019-03-08T05:59:45.460Z,17.62
2019-03-08T06:00:55.279Z,17.55
2019-03-08T06:02:05.011Z,17.59
2019-03-08T06:03:14.735Z,17.49
2019-03-08T06:04:24.493Z,17.54
2019-03-08T06:05:33.981Z,17.56
2019-03-08T06:06:43.716Z,17.51
2019-03-08T06:07:53.229Z,17.54
2019-03-08T06:09:02.985Z,17.58
2019-03-08T06:10:12.734Z,17.54
2019-03-08T06:11:22.708Z,17.54
2019-03-08T06:12:32.682Z,17.58
2019-03-08T06:13:42.401Z,17.58
2019-03-08T06:14:52.133Z,17.59
2019-03-08T06:16:01.625Z,17.54
2019-03-08T06:17:11.372Z,17.64
2019-03-08T06:18:21.350Z,17.59
2019-03-08T06:19:31.107Z,17.55
2019-03-08T06:20:40.375Z,17.62
2019-03-08T06:21:50.111Z,17.64
2019-03-08T06:22:59.848Z,17.64
2019-03-08T06:24:09.847Z,17.68
2019-03-08T06:25:19.603Z,17.71
2019-03-08T06:26:29.354Z,17.59
2019-03-08T06:27:38.843Z,17.66
2019-03-08T06:28:48.589Z,17.66
2019-03-08T06:29:57.808Z,17.64
2019-03-08T06:31:07.753Z,17.66
2019-03-08T06:32:17.742Z,17.64
2019-03-08T06:33:27.722Z,17.58
2019-03-08T06:34:37.759Z,17.68
2019-03-08T06:35:47.728Z,17.66
2019-03-08T06:36:57.230Z,17.66
2019-03-08T06:38:06.963Z,17.55
2019-03-08T06:39:16.710Z,17.51
2019-03-08T06:40:26.439Z,17.51
2019-03-08T06:41:36.027Z,17.54
2019-03-08T06:42:45.529Z,17.52
2019-03-08T06:43:55.027Z,17.55
2019-03-08T06:45:04.754Z,17.54
2019-03-08T06:46:14.485Z,17.56
2019-03-08T06:47:23.701Z,17.55
2019-03-08T06:48:33.684Z,17.56
2019-03-08T06:49:43.184Z,17.52
2019-03-08T06:50:53.185Z,17.51
2019-03-08T06:52:03.454Z,17.56
2019-03-08T06:53:13.697Z,17.52
2019-03-08T06:54:24.006Z,17.55
2019-03-08T06:55:34.384Z,17.68
2019-03-08T06:56:44.340Z,17.64
2019-03-08T06:57:54.360Z,17.59
2019-03-08T06:59:05.040Z,17.63
2019-03-08T07:00:15.029Z,17.64
2019-03-08T07:01:24.958Z,17.7
2019-03-08T07:02:35.321Z,17.66
2019-03-08T07:03:45.130Z,17.75
2019-03-08T07:04:54.613Z,17.75
2019-03-08T07:06:04.348Z,17.68
2019-03-08T07:07:14.075Z,17.74
2019-03-08T07:08:23.808Z,17.7
2019-03-08T07:09:33.555Z,17.74
2019-03-08T07:10:43.525Z,17.71
2019-03-08T07:11:53.518Z,17.68
2019-03-08T07:13:08.285Z,17.71
2019-03-08T07:14:18.017Z,17.66
2019-03-08T07:15:27.253Z,17.64
2019-03-08T07:16:36.722Z,17.7
2019-03-08T07:17:45.966Z,17.62
2019-03-08T07:18:56.689Z,17.66
2019-03-08T07:20:06.421Z,17.66
2019-03-08T07:21:16.160Z,17.66
2019-03-08T07:22:25.918Z,17.68
2019-03-08T07:23:35.413Z,17.68
2019-03-08T07:24:45.132Z,17.68
2019-03-08T07:25:58.966Z,17.59
2019-03-08T07:27:08.951Z,17.62
2019-03-08T07:28:18.920Z,17.64
2019-03-08T07:29:28.160Z,17.63
2019-03-08T07:30:37.898Z,17.59
2019-03-08T07:31:47.876Z,17.52
2019-03-08T07:32:57.621Z,17.54
2019-03-08T07:34:06.594Z,17.55
2019-03-08T07:35:18.705Z,17.54
2019-03-08T07:36:29.440Z,17.58
2019-03-08T07:37:40.233Z,17.58
2019-03-08T07:38:50.304Z,17.63
2019-03-08T07:40:00.037Z,17.62
2019-03-08T07:41:09.782Z,17.56
2019-03-08T07:42:19.515Z,17.56
2019-03-08T07:43:28.774Z,17.52
2019-03-08T07:44:38.011Z,17.54
2019-03-08T07:45:49.183Z,17.55
2019-03-08T07:46:59.206Z,17.56
2019-03-08T07:48:08.943Z,17.55
2019-03-08T07:49:18.643Z,17.63
2019-03-08T07:50:30.155Z,17.54
2019-03-08T07:51:41.108Z,17.62
2019-03-08T07:52:51.773Z,17.68
2019-03-08T07:54:01.867Z,17.66
2019-03-08T07:55:11.807Z,17.71
2019-03-08T07:56:21.727Z,17.7
2019-03-08T07:57:31.856Z,17.64
2019-03-08T07:58:41.834Z,17.62
2019-03-08T07:59:58.185Z,17.63
2019-03-08T08:01:07.716Z,17.62
2019-03-08T08:02:17.706Z,17.64
2019-03-08T08:03:27.429Z,17.64
2019-03-08T08:04:37.191Z,17.64
2019-03-08T08:05:46.693Z,17.68
2019-03-08T08:07:05.434Z,17.75
2019-03-08T08:08:15.239Z,17.72
2019-03-08T08:09:25.242Z,17.75
2019-03-08T08:10:34.738Z,17.75
2019-03-08T08:11:44.520Z,17.77
2019-03-08T08:12:54.257Z,17.68
2019-03-08T08:14:04.040Z,17.68
2019-03-08T08:15:13.763Z,17.66
2019-03-08T08:16:23.743Z,17.64
2019-03-08T08:17:33.746Z,17.68
2019-03-08T08:18:43.769Z,17.66
2019-03-08T08:19:53.287Z,17.66
2019-03-08T08:21:03.728Z,17.68
2019-03-08T08:22:14.774Z,17.68
2019-03-08T08:23:33.806Z,17.74
2019-03-08T08:24:45.284Z,17.64
2019-03-08T08:25:55.547Z,17.82
2019-03-08T08:27:07.011Z,17.78
2019-03-08T08:28:17.178Z,17.87
2019-03-08T08:29:34.628Z,17.93
2019-03-08T08:30:44.754Z,17.9
2019-03-08T08:31:54.485Z,17.84
2019-03-08T08:33:04.467Z,17.89
2019-03-08T08:34:14.218Z,17.87
2019-03-08T08:35:24.220Z,17.92
2019-03-08T08:36:34.219Z,17.93
2019-03-08T08:37:43.952Z,17.86
2019-03-08T08:38:53.684Z,17.93
2019-03-08T08:40:03.666Z,17.99
2019-03-08T08:41:13.392Z,18.05
2019-03-08T08:42:22.866Z,17.93
2019-03-08T08:43:32.606Z,17.99
2019-03-08T08:44:42.113Z,17.97
2019-03-08T08:45:52.097Z,17.97
2019-03-08T08:47:01.842Z,18
2019-03-08T08:48:11.594Z,17.95
2019-03-08T08:49:22.788Z,17.99
2019-03-08T08:50:32.546Z,18.03
2019-03-08T08:51:42.891Z,18.03
2019-03-08T08:52:52.369Z,18.03
2019-03-08T08:54:01.868Z,18.07
2019-03-08T08:55:11.603Z,18.12
2019-03-08T08:56:21.341Z,18.07
2019-03-08T08:57:31.331Z,18.08
2019-03-08T08:58:41.054Z,18.08
2019-03-08T08:59:51.043Z,18.08
2019-03-08T09:01:02.125Z,18.1
2019-03-08T09:02:12.104Z,18.14
2019-03-08T09:03:22.109Z,18.33
2019-03-08T09:04:31.599Z,18.42
2019-03-08T09:05:41.324Z,18.44
2019-03-08T09:06:51.297Z,18.42
2019-03-08T09:08:01.052Z,18.32
2019-03-08T09:09:10.777Z,18.32
2019-03-08T09:10:20.520Z,18.33
2019-03-08T09:11:30.503Z,18.26
2019-03-08T09:12:51.366Z,18.12
2019-03-08T09:14:01.321Z,18.2
2019-03-08T09:15:11.106Z,18.23
2019-03-08T09:16:20.826Z,18.23
2019-03-08T09:17:30.055Z,18.18
2019-03-08T09:18:39.785Z,18.17
2019-03-08T09:19:49.511Z,18.14
2019-03-08T09:20:58.751Z,18.14
2019-03-08T09:22:08.481Z,18.15
2019-03-08T09:23:18.452Z,18.12
2019-03-08T09:24:27.947Z,18.17
2019-03-08T09:25:37.682Z,18.2
2019-03-08T09:26:47.680Z,18.21
2019-03-08T09:27:56.959Z,18.18
2019-03-08T09:29:06.694Z,18.25
2019-03-08T09:30:16.675Z,18.23
2019-03-08T09:31:27.583Z,18.23
2019-03-08T09:32:37.560Z,18.18
2019-03-08T09:33:47.037Z,18.08
2019-03-08T09:34:56.795Z,18.23
2019-03-08T09:36:06.526Z,18.26
2019-03-08T09:37:16.496Z,18.26
2019-03-08T09:38:25.985Z,18.15
2019-03-08T09:39:35.715Z,18.17
2019-03-08T09:40:45.699Z,18.15
2019-03-08T09:41:55.416Z,18.29
2019-03-08T09:43:05.189Z,18.17
2019-03-08T09:44:15.179Z,18.14
2019-03-08T09:45:24.908Z,18.14
2019-03-08T09:46:34.654Z,18.23
2019-03-08T09:47:44.139Z,18.17
2019-03-08T09:48:53.887Z,18.15
2019-03-08T09:50:04.275Z,18.18
2019-03-08T09:51:13.765Z,18.14
2019-03-08T09:52:23.745Z,18.29
2019-03-08T09:53:33.508Z,18.23
2019-03-08T09:54:43.235Z,18.25
2019-03-08T09:55:52.961Z,18.14
2019-03-08T09:57:02.956Z,18.25
2019-03-08T09:58:12.694Z,18.23
2019-03-08T09:59:22.685Z,18.23
2019-03-08T10:00:32.627Z,18.2
2019-03-08T10:01:42.354Z,18.21
2019-03-08T10:02:52.081Z,18.15
2019-03-08T10:04:02.058Z,18.27
2019-03-08T10:05:12.050Z,18.14
2019-03-08T10:06:22.032Z,18.36
2019-03-08T10:07:31.763Z,18.3
2019-03-08T10:08:41.812Z,18.25
2019-03-08T10:09:52.202Z,18.27
2019-03-08T10:11:02.752Z,18.26
2019-03-08T10:12:13.042Z,18.23
2019-03-08T10:13:23.666Z,18.21
2019-03-08T10:14:34.060Z,18.11
2019-03-08T10:15:43.859Z,18.29
2019-03-08T10:16:53.661Z,18.23
2019-03-08T10:18:03.412Z,18.14
2019-03-08T10:19:12.391Z,18.2
2019-03-08T10:20:21.854Z,18.11
2019-03-08T10:21:31.598Z,18.15
2019-03-08T10:22:41.327Z,18.1
2019-03-08T10:23:51.046Z,18.05
2019-03-08T10:25:00.793Z,18.11
2019-03-08T10:26:10.516Z,18.14
2019-03-08T10:27:19.765Z,18.05
2019-03-08T10:28:29.749Z,18.07
2019-03-08T10:29:39.521Z,18.11
2019-03-08T10:30:49.524Z,18.07
2019-03-08T10:31:59.511Z,18.1
2019-03-08T10:33:10.212Z,18.1
2019-03-08T10:34:20.260Z,18.15
2019-03-08T10:35:29.616Z,18.03
2019-03-08T10:36:39.370Z,18.1
2019-03-08T10:37:49.103Z,18.05
2019-03-08T10:38:59.079Z,18.05
2019-03-08T10:40:10.519Z,18.11
2019-03-08T10:41:20.512Z,18.07
2019-03-08T10:42:30.475Z,18.12
2019-03-08T10:43:40.458Z,18.14
2019-03-08T10:44:50.191Z,18.2
2019-03-08T10:45:59.654Z,18.27
2019-03-08T10:47:09.392Z,18.11
2019-03-08T10:48:19.386Z,18.2
2019-03-08T10:49:29.391Z,18.2
2019-03-08T10:50:38.863Z,18.18
2019-03-08T10:51:48.855Z,18.14
2019-03-08T10:52:58.100Z,18.33
2019-03-08T10:54:08.094Z,18.2
2019-03-08T10:55:18.082Z,18.21
2019-03-08T10:56:28.058Z,18.27
2019-03-08T10:57:38.036Z,18.18
2019-03-08T10:58:47.516Z,18.12
2019-03-08T10:59:57.501Z,18.14
2019-03-08T11:01:07.258Z,18.21
2019-03-08T11:02:16.979Z,18.25
2019-03-08T11:03:26.945Z,18.2
2019-03-08T11:04:36.673Z,18.17
2019-03-08T11:05:46.394Z,18.17
2019-03-08T11:06:56.117Z,18.14
2019-03-08T11:08:06.052Z,18.23
2019-03-08T11:09:17.221Z,18.29
2019-03-08T11:10:27.187Z,18.11
2019-03-08T11:11:37.613Z,18.3
2019-03-08T11:12:48.317Z,18.26
2019-03-08T11:13:58.626Z,18.23
2019-03-08T11:15:08.677Z,18.18
2019-03-08T11:16:18.869Z,18.29
2019-03-08T11:17:30.306Z,18.18
2019-03-08T11:18:40.047Z,18.18
2019-03-08T11:19:49.535Z,18.36
2019-03-08T11:20:59.268Z,18.3
2019-03-08T11:22:08.987Z,18.32
2019-03-08T11:23:18.703Z,18.35
2019-03-08T11:24:28.715Z,18.41
2019-03-08T11:25:40.096Z,18.35
2019-03-08T11:26:49.577Z,18.29
2019-03-08T11:27:59.308Z,18.3
2019-03-08T11:29:09.031Z,18.29
2019-03-08T11:30:19.022Z,18.18
2019-03-08T11:31:29.263Z,18.29
2019-03-08T11:32:40.240Z,18.21
2019-03-08T11:33:51.635Z,18.27
2019-03-08T11:35:01.413Z,18.29
2019-03-08T11:36:10.883Z,18.2
2019-03-08T11:37:20.864Z,18.26
2019-03-08T11:38:30.587Z,18.33
2019-03-08T11:39:40.582Z,18.41
2019-03-08T11:40:50.333Z,18.45
2019-03-08T11:42:00.548Z,18.45
2019-03-08T11:43:10.579Z,18.44
2019-03-08T11:44:20.329Z,18.45
2019-03-08T11:45:30.888Z,18.57
2019-03-08T11:46:40.355Z,18.51
2019-03-08T11:47:49.566Z,18.54
2019-03-08T11:48:59.333Z,18.41
2019-03-08T11:50:08.811Z,18.41
2019-03-08T11:51:18.538Z,18.41
2019-03-08T11:52:28.031Z,18.41
2019-03-08T11:53:37.519Z,18.42
2019-03-08T11:54:47.280Z,18.45
2019-03-08T11:55:57.005Z,18.45
2019-03-08T11:57:06.893Z,18.39
2019-03-08T11:58:16.157Z,18.44
2019-03-08T11:59:26.122Z,18.39
2019-03-08T12:00:35.852Z,18.5
2019-03-08T12:01:46.106Z,18.48
2019-03-08T12:02:58.017Z,18.44
2019-03-08T12:04:08.716Z,18.52
2019-03-08T12:05:19.190Z,18.51
2019-03-08T12:06:28.773Z,18.54
2019-03-08T12:07:40.347Z,18.54
2019-03-08T12:08:49.866Z,18.6
2019-03-08T12:09:59.625Z,18.57
2019-03-08T12:11:09.597Z,18.62
2019-03-08T12:12:18.817Z,18.63
2019-03-08T12:13:28.804Z,18.7
2019-03-08T12:14:39.501Z,18.65
2019-03-08T12:15:49.495Z,18.78
2019-03-08T12:16:59.239Z,18.82
2019-03-08T12:18:08.982Z,18.84
2019-03-08T12:19:18.226Z,18.87
2019-03-08T12:20:28.205Z,18.85
2019-03-08T12:21:38.169Z,18.82
2019-03-08T12:22:47.910Z,18.84
